sensor_id;sensor_type;location;lat;lon;timestamp;P1;durP1;ratioP1;P2;durP2;ratioP2
13222;SDS011;6676;45.192;5.722;2022-12-24T00:00:55;13.93;;;11.80;;
13222;SDS011;6676;45.192;5.722;2022-12-24T00:03:46;13.15;;;11.60;;
13222;SDS011;6676;45.192;5.722;2022-12-24T00:06:38;14.60;;;12.55;;
13222;SDS011;6676;45.192;5.722;2022-12-24T00:09:29;16.27;;;13.00;;
13222;SDS011;6676;45.192;5.722;2022-12-24T00:12:21;14.25;;;11.97;;
13222;SDS011;6676;45.192;5.722;2022-12-24T00:15:12;14.90;;;12.78;;
13222;SDS011;6676;45.192;5.722;2022-12-24T00:20:45;14.30;;;11.85;;
13222;SDS011;6676;45.192;5.722;2022-12-24T00:23:36;13.35;;;11.78;;
13222;SDS011;6676;45.192;5.722;2022-12-24T00:26:18;13.78;;;11.45;;
13222;SDS011;6676;45.192;5.722;2022-12-24T00:29:10;13.93;;;11.63;;
13222;SDS011;6676;45.192;5.722;2022-12-24T00:32:02;12.70;;;11.20;;
13222;SDS011;6676;45.192;5.722;2022-12-24T00:34:55;12.68;;;11.03;;
13222;SDS011;6676;45.192;5.722;2022-12-24T00:40:28;12.80;;;11.15;;
13222;SDS011;6676;45.192;5.722;2022-12-24T00:43:20;12.60;;;11.12;;
13222;SDS011;6676;45.192;5.722;2022-12-24T00:46:14;12.75;;;10.98;;
13222;SDS011;6676;45.192;5.722;2022-12-24T00:51:48;13.43;;;11.35;;
13222;SDS011;6676;45.192;5.722;2022-12-24T00:54:39;12.73;;;11.35;;
13222;SDS011;6676;45.192;5.722;2022-12-24T00:57:31;12.55;;;11.12;;
13222;SDS011;6676;45.192;5.722;2022-12-24T01:00:25;12.82;;;11.50;;
13222;SDS011;6676;45.192;5.722;2022-12-24T01:03:17;15.55;;;11.93;;
13222;SDS011;6676;45.192;5.722;2022-12-24T01:06:11;14.00;;;11.65;;
13222;SDS011;6676;45.192;5.722;2022-12-24T01:08:50;13.25;;;11.63;;
13222;SDS011;6676;45.192;5.722;2022-12-24T01:14:51;15.10;;;11.88;;
13222;SDS011;6676;45.192;5.722;2022-12-24T01:17:43;14.75;;;11.85;;
13222;SDS011;6676;45.192;5.722;2022-12-24T01:20:30;13.68;;;11.48;;
13222;SDS011;6676;45.192;5.722;2022-12-24T01:23:21;12.63;;;10.88;;
13222;SDS011;6676;45.192;5.722;2022-12-24T01:26:13;11.33;;;10.23;;
13222;SDS011;6676;45.192;5.722;2022-12-24T01:29:04;10.78;;;9.58;;
13222;SDS011;6676;45.192;5.722;2022-12-24T01:34:43;10.95;;;9.28;;
13222;SDS011;6676;45.192;5.722;2022-12-24T01:37:35;10.75;;;9.68;;
13222;SDS011;6676;45.192;5.722;2022-12-24T01:40:26;10.32;;;9.33;;
13222;SDS011;6676;45.192;5.722;2022-12-24T01:46:15;10.13;;;9.13;;
13222;SDS011;6676;45.192;5.722;2022-12-24T01:51:48;10.58;;;9.48;;
13222;SDS011;6676;45.192;5.722;2022-12-24T01:54:43;10.63;;;9.53;;
13222;SDS011;6676;45.192;5.722;2022-12-24T02:00:16;9.60;;;8.60;;
13222;SDS011;6676;45.192;5.722;2022-12-24T02:05:48;11.15;;;9.98;;
13222;SDS011;6676;45.192;5.722;2022-12-24T02:08:41;10.55;;;9.23;;
13222;SDS011;6676;45.192;5.722;2022-12-24T02:14:11;10.95;;;9.60;;
13222;SDS011;6676;45.192;5.722;2022-12-24T02:17:08;11.35;;;9.45;;
13222;SDS011;6676;45.192;5.722;2022-12-24T02:23:33;9.50;;;8.50;;
13222;SDS011;6676;45.192;5.722;2022-12-24T02:26:33;10.10;;;8.80;;
13222;SDS011;6676;45.192;5.722;2022-12-24T02:32:40;12.82;;;11.57;;
13222;SDS011;6676;45.192;5.722;2022-12-24T02:35:52;11.18;;;9.70;;
13222;SDS011;6676;45.192;5.722;2022-12-24T02:38:48;9.90;;;8.90;;
13222;SDS011;6676;45.192;5.722;2022-12-24T02:44:27;9.15;;;8.25;;
13222;SDS011;6676;45.192;5.722;2022-12-24T02:47:23;9.58;;;8.00;;
13222;SDS011;6676;45.192;5.722;2022-12-24T02:50:05;9.43;;;8.18;;
13222;SDS011;6676;45.192;5.722;2022-12-24T02:55:40;10.95;;;9.85;;
13222;SDS011;6676;45.192;5.722;2022-12-24T02:58:35;12.00;;;10.28;;
13222;SDS011;6676;45.192;5.722;2022-12-24T03:01:18;11.40;;;9.98;;
13222;SDS011;6676;45.192;5.722;2022-12-24T03:06:54;12.35;;;11.15;;
13222;SDS011;6676;45.192;5.722;2022-12-24T03:09:50;11.40;;;10.25;;
13222;SDS011;6676;45.192;5.722;2022-12-24T03:12:47;11.40;;;9.75;;
13222;SDS011;6676;45.192;5.722;2022-12-24T03:15:41;11.25;;;9.88;;
13222;SDS011;6676;45.192;5.722;2022-12-24T03:18:35;9.95;;;8.90;;
13222;SDS011;6676;45.192;5.722;2022-12-24T03:21:30;9.33;;;8.33;;
13222;SDS011;6676;45.192;5.722;2022-12-24T03:27:13;7.92;;;7.22;;
13222;SDS011;6676;45.192;5.722;2022-12-24T03:29:54;8.83;;;7.62;;
13222;SDS011;6676;45.192;5.722;2022-12-24T03:35:25;8.73;;;7.80;;
13222;SDS011;6676;45.192;5.722;2022-12-24T03:38:17;8.43;;;7.62;;
13222;SDS011;6676;45.192;5.722;2022-12-24T03:41:08;7.90;;;7.10;;
13222;SDS011;6676;45.192;5.722;2022-12-24T03:44:00;7.72;;;7.03;;
13222;SDS011;6676;45.192;5.722;2022-12-24T03:49:42;8.00;;;7.20;;
13222;SDS011;6676;45.192;5.722;2022-12-24T03:52:34;7.95;;;7.03;;
13222;SDS011;6676;45.192;5.722;2022-12-24T03:55:25;7.45;;;6.75;;
13222;SDS011;6676;45.192;5.722;2022-12-24T03:58:17;8.68;;;7.35;;
13222;SDS011;6676;45.192;5.722;2022-12-24T04:01:08;8.08;;;7.10;;
13222;SDS011;6676;45.192;5.722;2022-12-24T04:04:00;7.53;;;6.80;;
13222;SDS011;6676;45.192;5.722;2022-12-24T04:06:52;7.83;;;7.03;;
13222;SDS011;6676;45.192;5.722;2022-12-24T04:12:14;7.47;;;6.70;;
13222;SDS011;6676;45.192;5.722;2022-12-24T04:14:55;7.75;;;6.95;;
13222;SDS011;6676;45.192;5.722;2022-12-24T04:17:49;7.75;;;6.95;;
13222;SDS011;6676;45.192;5.722;2022-12-24T04:20:41;7.10;;;6.40;;
13222;SDS011;6676;45.192;5.722;2022-12-24T04:23:33;7.40;;;6.70;;
13222;SDS011;6676;45.192;5.722;2022-12-24T04:26:26;8.25;;;7.45;;
13222;SDS011;6676;45.192;5.722;2022-12-24T04:29:18;7.87;;;7.17;;
13222;SDS011;6676;45.192;5.722;2022-12-24T04:32:09;7.97;;;7.17;;
13222;SDS011;6676;45.192;5.722;2022-12-24T04:35:01;7.67;;;6.90;;
13222;SDS011;6676;45.192;5.722;2022-12-24T04:37:53;7.50;;;6.80;;
13222;SDS011;6676;45.192;5.722;2022-12-24T04:40:44;7.72;;;6.92;;
13222;SDS011;6676;45.192;5.722;2022-12-24T04:43:36;7.62;;;6.92;;
13222;SDS011;6676;45.192;5.722;2022-12-24T04:46:27;6.22;;;5.62;;
13222;SDS011;6676;45.192;5.722;2022-12-24T04:49:20;7.08;;;6.37;;
13222;SDS011;6676;45.192;5.722;2022-12-24T04:54:53;6.95;;;6.25;;
13222;SDS011;6676;45.192;5.722;2022-12-24T04:57:45;7.85;;;7.08;;
13222;SDS011;6676;45.192;5.722;2022-12-24T05:00:38;8.18;;;7.30;;
13222;SDS011;6676;45.192;5.722;2022-12-24T05:06:11;9.05;;;8.15;;
13222;SDS011;6676;45.192;5.722;2022-12-24T05:09:20;8.10;;;7.22;;
13222;SDS011;6676;45.192;5.722;2022-12-24T05:12:12;7.85;;;7.05;;
13222;SDS011;6676;45.192;5.722;2022-12-24T05:15:04;6.90;;;6.20;;
13222;SDS011;6676;45.192;5.722;2022-12-24T05:17:57;6.87;;;6.28;;
13222;SDS011;6676;45.192;5.722;2022-12-24T05:20:48;7.72;;;7.03;;
13222;SDS011;6676;45.192;5.722;2022-12-24T05:23:40;7.42;;;6.72;;
13222;SDS011;6676;45.192;5.722;2022-12-24T05:29:28;7.03;;;6.33;;
13222;SDS011;6676;45.192;5.722;2022-12-24T05:34:59;7.50;;;6.80;;
13222;SDS011;6676;45.192;5.722;2022-12-24T05:37:47;6.40;;;5.80;;
13222;SDS011;6676;45.192;5.722;2022-12-24T05:40:38;7.55;;;6.75;;
13222;SDS011;6676;45.192;5.722;2022-12-24T05:43:30;8.78;;;7.20;;
13222;SDS011;6676;45.192;5.722;2022-12-24T05:46:22;7.90;;;7.10;;
13222;SDS011;6676;45.192;5.722;2022-12-24T05:49:13;7.03;;;6.33;;
13222;SDS011;6676;45.192;5.722;2022-12-24T05:54:45;7.95;;;6.58;;
13222;SDS011;6676;45.192;5.722;2022-12-24T05:57:39;6.67;;;5.97;;
13222;SDS011;6676;45.192;5.722;2022-12-24T06:00:30;6.95;;;6.20;;
13222;SDS011;6676;45.192;5.722;2022-12-24T06:03:22;6.55;;;5.85;;
13222;SDS011;6676;45.192;5.722;2022-12-24T06:06:14;6.50;;;5.90;;
13222;SDS011;6676;45.192;5.722;2022-12-24T06:09:08;6.08;;;5.47;;
13222;SDS011;6676;45.192;5.722;2022-12-24T06:11:48;6.40;;;5.80;;
13222;SDS011;6676;45.192;5.722;2022-12-24T06:14:39;6.50;;;5.90;;
13222;SDS011;6676;45.192;5.722;2022-12-24T06:17:31;6.25;;;5.62;;
13222;SDS011;6676;45.192;5.722;2022-12-24T06:20:22;6.55;;;5.78;;
13222;SDS011;6676;45.192;5.722;2022-12-24T06:23:14;6.70;;;6.00;;
13222;SDS011;6676;45.192;5.722;2022-12-24T06:26:06;6.97;;;5.70;;
13222;SDS011;6676;45.192;5.722;2022-12-24T06:28:59;6.62;;;6.03;;
13222;SDS011;6676;45.192;5.722;2022-12-24T06:34:30;6.85;;;6.17;;
13222;SDS011;6676;45.192;5.722;2022-12-24T06:40:01;6.20;;;5.60;;
13222;SDS011;6676;45.192;5.722;2022-12-24T06:42:54;6.05;;;5.45;;
13222;SDS011;6676;45.192;5.722;2022-12-24T06:45:46;5.83;;;5.22;;
13222;SDS011;6676;45.192;5.722;2022-12-24T06:48:39;5.55;;;5.05;;
13222;SDS011;6676;45.192;5.722;2022-12-24T06:54:18;5.65;;;5.15;;
13222;SDS011;6676;45.192;5.722;2022-12-24T06:57:09;6.58;;;5.90;;
13222;SDS011;6676;45.192;5.722;2022-12-24T07:00:01;6.62;;;6.03;;
13222;SDS011;6676;45.192;5.722;2022-12-24T07:02:54;6.87;;;6.28;;
13222;SDS011;6676;45.192;5.722;2022-12-24T07:05:46;7.97;;;6.35;;
13222;SDS011;6676;45.192;5.722;2022-12-24T07:08:37;7.00;;;6.30;;
13222;SDS011;6676;45.192;5.722;2022-12-24T07:11:29;8.00;;;6.10;;
13222;SDS011;6676;45.192;5.722;2022-12-24T07:14:20;6.12;;;5.00;;
13222;SDS011;6676;45.192;5.722;2022-12-24T07:17:12;5.00;;;4.55;;
13222;SDS011;6676;45.192;5.722;2022-12-24T07:20:04;5.80;;;5.30;;
13222;SDS011;6676;45.192;5.722;2022-12-24T07:25:41;5.75;;;5.15;;
13222;SDS011;6676;45.192;5.722;2022-12-24T07:28:33;6.20;;;5.60;;
13222;SDS011;6676;45.192;5.722;2022-12-24T07:31:24;6.95;;;5.90;;
13222;SDS011;6676;45.192;5.722;2022-12-24T07:34:16;6.22;;;5.20;;
13222;SDS011;6676;45.192;5.722;2022-12-24T07:37:07;6.67;;;5.90;;
13222;SDS011;6676;45.192;5.722;2022-12-24T07:39:59;7.28;;;6.33;;
13222;SDS011;6676;45.192;5.722;2022-12-24T07:42:50;7.15;;;6.45;;
13222;SDS011;6676;45.192;5.722;2022-12-24T07:45:42;6.80;;;6.10;;
13222;SDS011;6676;45.192;5.722;2022-12-24T07:48:33;7.62;;;6.83;;
13222;SDS011;6676;45.192;5.722;2022-12-24T07:51:26;7.42;;;6.72;;
13222;SDS011;6676;45.192;5.722;2022-12-24T07:54:17;7.80;;;7.00;;
13222;SDS011;6676;45.192;5.722;2022-12-24T07:57:09;8.05;;;6.92;;
13222;SDS011;6676;45.192;5.722;2022-12-24T08:00:00;8.85;;;7.42;;
13222;SDS011;6676;45.192;5.722;2022-12-24T08:02:55;8.65;;;7.35;;
13222;SDS011;6676;45.192;5.722;2022-12-24T08:05:47;8.10;;;7.30;;
13222;SDS011;6676;45.192;5.722;2022-12-24T08:08:40;8.03;;;7.22;;
13222;SDS011;6676;45.192;5.722;2022-12-24T08:14:35;7.90;;;7.12;;
13222;SDS011;6676;45.192;5.722;2022-12-24T08:17:26;7.80;;;6.70;;
13222;SDS011;6676;45.192;5.722;2022-12-24T08:20:19;7.80;;;7.00;;
13222;SDS011;6676;45.192;5.722;2022-12-24T08:23:11;8.28;;;6.50;;
13222;SDS011;6676;45.192;5.722;2022-12-24T08:26:02;6.83;;;6.08;;
13222;SDS011;6676;45.192;5.722;2022-12-24T08:31:34;8.08;;;5.50;;
13222;SDS011;6676;45.192;5.722;2022-12-24T08:34:14;7.05;;;6.03;;
13222;SDS011;6676;45.192;5.722;2022-12-24T08:37:05;6.30;;;5.70;;
13222;SDS011;6676;45.192;5.722;2022-12-24T08:39:46;7.17;;;6.47;;
13222;SDS011;6676;45.192;5.722;2022-12-24T08:42:37;7.28;;;6.58;;
13222;SDS011;6676;45.192;5.722;2022-12-24T08:45:29;8.28;;;7.47;;
13222;SDS011;6676;45.192;5.722;2022-12-24T08:48:22;8.33;;;7.50;;
13222;SDS011;6676;45.192;5.722;2022-12-24T08:51:14;8.33;;;7.47;;
13222;SDS011;6676;45.192;5.722;2022-12-24T08:54:06;8.18;;;7.30;;
13222;SDS011;6676;45.192;5.722;2022-12-24T08:59:37;8.78;;;7.85;;
13222;SDS011;6676;45.192;5.722;2022-12-24T09:02:28;8.40;;;7.42;;
13222;SDS011;6676;45.192;5.722;2022-12-24T09:05:20;8.38;;;7.55;;
13222;SDS011;6676;45.192;5.722;2022-12-24T09:08:13;8.05;;;7.35;;
13222;SDS011;6676;45.192;5.722;2022-12-24T09:11:05;8.30;;;7.45;;
13222;SDS011;6676;45.192;5.722;2022-12-24T09:13:58;7.87;;;7.17;;
13222;SDS011;6676;45.192;5.722;2022-12-24T09:16:49;8.43;;;7.45;;
13222;SDS011;6676;45.192;5.722;2022-12-24T09:19:41;7.92;;;7.12;;
13222;SDS011;6676;45.192;5.722;2022-12-24T09:25:25;8.13;;;7.33;;
13222;SDS011;6676;45.192;5.722;2022-12-24T09:28:17;8.55;;;7.45;;
13222;SDS011;6676;45.192;5.722;2022-12-24T09:31:08;8.45;;;7.65;;
13222;SDS011;6676;45.192;5.722;2022-12-24T09:36:43;8.15;;;7.35;;
13222;SDS011;6676;45.192;5.722;2022-12-24T09:39:34;8.10;;;7.30;;
13222;SDS011;6676;45.192;5.722;2022-12-24T09:45:07;8.18;;;7.37;;
13222;SDS011;6676;45.192;5.722;2022-12-24T09:50:42;8.15;;;7.35;;
13222;SDS011;6676;45.192;5.722;2022-12-24T09:56:19;8.95;;;7.95;;
13222;SDS011;6676;45.192;5.722;2022-12-24T09:59:13;8.20;;;7.40;;
13222;SDS011;6676;45.192;5.722;2022-12-24T10:04:48;7.20;;;6.03;;
13222;SDS011;6676;45.192;5.722;2022-12-24T10:07:42;6.80;;;6.10;;
13222;SDS011;6676;45.192;5.722;2022-12-24T10:10:25;6.08;;;5.47;;
13222;SDS011;6676;45.192;5.722;2022-12-24T10:15:59;7.00;;;6.30;;
13222;SDS011;6676;45.192;5.722;2022-12-24T10:18:55;6.83;;;6.12;;
13222;SDS011;6676;45.192;5.722;2022-12-24T10:24:36;7.20;;;6.53;;
13222;SDS011;6676;45.192;5.722;2022-12-24T10:27:32;7.30;;;6.58;;
13222;SDS011;6676;45.192;5.722;2022-12-24T10:30:25;7.87;;;7.08;;
13222;SDS011;6676;45.192;5.722;2022-12-24T10:33:18;7.45;;;6.70;;
13222;SDS011;6676;45.192;5.722;2022-12-24T10:36:11;7.83;;;7.03;;
13222;SDS011;6676;45.192;5.722;2022-12-24T10:39:08;8.30;;;7.50;;
13222;SDS011;6676;45.192;5.722;2022-12-24T10:42:02;8.35;;;6.60;;
13222;SDS011;6676;45.192;5.722;2022-12-24T10:44:56;8.38;;;7.47;;
13222;SDS011;6676;45.192;5.722;2022-12-24T10:50:30;7.00;;;6.30;;
13222;SDS011;6676;45.192;5.722;2022-12-24T10:53:26;8.40;;;7.50;;
13222;SDS011;6676;45.192;5.722;2022-12-24T10:56:19;7.75;;;7.03;;
13222;SDS011;6676;45.192;5.722;2022-12-24T10:59:22;10.55;;;7.28;;
13222;SDS011;6676;45.192;5.722;2022-12-24T11:02:24;10.75;;;7.85;;
13222;SDS011;6676;45.192;5.722;2022-12-24T11:05:28;8.68;;;7.35;;
13222;SDS011;6676;45.192;5.722;2022-12-24T11:08:21;8.25;;;7.47;;
13222;SDS011;6676;45.192;5.722;2022-12-24T11:11:15;8.33;;;7.42;;
13222;SDS011;6676;45.192;5.722;2022-12-24T11:14:11;7.10;;;6.40;;
13222;SDS011;6676;45.192;5.722;2022-12-24T11:17:05;6.55;;;5.87;;
13222;SDS011;6676;45.192;5.722;2022-12-24T11:19:59;6.58;;;5.97;;
13222;SDS011;6676;45.192;5.722;2022-12-24T11:22:40;5.53;;;5.00;;
13222;SDS011;6676;45.192;5.722;2022-12-24T11:25:33;4.50;;;3.90;;
13222;SDS011;6676;45.192;5.722;2022-12-24T11:28:28;5.97;;;4.90;;
13222;SDS011;6676;45.192;5.722;2022-12-24T11:31:22;5.12;;;4.62;;
13222;SDS011;6676;45.192;5.722;2022-12-24T11:34:21;6.72;;;5.53;;
13222;SDS011;6676;45.192;5.722;2022-12-24T11:37:15;5.42;;;4.70;;
13222;SDS011;6676;45.192;5.722;2022-12-24T11:40:18;5.55;;;4.67;;
13222;SDS011;6676;45.192;5.722;2022-12-24T11:45:59;6.45;;;5.50;;
13222;SDS011;6676;45.192;5.722;2022-12-24T11:49:04;5.20;;;4.70;;
13222;SDS011;6676;45.192;5.722;2022-12-24T11:55:05;7.17;;;4.70;;
13222;SDS011;6676;45.192;5.722;2022-12-24T11:58:04;5.72;;;4.17;;
13222;SDS011;6676;45.192;5.722;2022-12-24T12:01:01;6.58;;;5.40;;
13222;SDS011;6676;45.192;5.722;2022-12-24T12:03:56;6.72;;;5.05;;
13222;SDS011;6676;45.192;5.722;2022-12-24T12:06:51;5.80;;;5.20;;
13222;SDS011;6676;45.192;5.722;2022-12-24T12:09:46;5.80;;;5.15;;
13222;SDS011;6676;45.192;5.722;2022-12-24T12:12:43;5.58;;;5.08;;
13222;SDS011;6676;45.192;5.722;2022-12-24T12:15:23;6.30;;;5.15;;
13222;SDS011;6676;45.192;5.722;2022-12-24T12:20:59;4.75;;;4.25;;
13222;SDS011;6676;45.192;5.722;2022-12-24T12:23:53;4.92;;;4.42;;
13222;SDS011;6676;45.192;5.722;2022-12-24T12:26:48;5.67;;;4.55;;
13222;SDS011;6676;45.192;5.722;2022-12-24T12:32:26;5.42;;;4.62;;
13222;SDS011;6676;45.192;5.722;2022-12-24T12:38:00;5.70;;;4.60;;
13222;SDS011;6676;45.192;5.722;2022-12-24T12:40:47;4.83;;;4.17;;
13222;SDS011;6676;45.192;5.722;2022-12-24T12:46:37;3.80;;;3.05;;
13222;SDS011;6676;45.192;5.722;2022-12-24T12:49:35;3.00;;;2.70;;
13222;SDS011;6676;45.192;5.722;2022-12-24T12:52:41;3.30;;;2.50;;
13222;SDS011;6676;45.192;5.722;2022-12-24T12:55:30;3.42;;;2.92;;
13222;SDS011;6676;45.192;5.722;2022-12-24T12:58:28;4.33;;;2.62;;
13222;SDS011;6676;45.192;5.722;2022-12-24T13:01:23;3.20;;;2.60;;
13222;SDS011;6676;45.192;5.722;2022-12-24T13:04:23;3.98;;;1.85;;
13222;SDS011;6676;45.192;5.722;2022-12-24T13:07:50;2.55;;;2.25;;
13222;SDS011;6676;45.192;5.722;2022-12-24T13:11:10;2.85;;;1.90;;
13222;SDS011;6676;45.192;5.722;2022-12-24T13:17:43;3.05;;;1.95;;
13222;SDS011;6676;45.192;5.722;2022-12-24T13:20:56;2.37;;;1.87;;
13222;SDS011;6676;45.192;5.722;2022-12-24T13:23:48;2.47;;;1.82;;
13222;SDS011;6676;45.192;5.722;2022-12-24T13:26:40;4.30;;;2.05;;
13222;SDS011;6676;45.192;5.722;2022-12-24T13:29:42;2.40;;;2.12;;
13222;SDS011;6676;45.192;5.722;2022-12-24T13:32:48;3.17;;;2.30;;
13222;SDS011;6676;45.192;5.722;2022-12-24T13:35:59;3.70;;;2.20;;
13222;SDS011;6676;45.192;5.722;2022-12-24T13:44:46;3.20;;;2.17;;
13222;SDS011;6676;45.192;5.722;2022-12-24T13:47:39;3.40;;;2.10;;
13222;SDS011;6676;45.192;5.722;2022-12-24T13:50:35;2.92;;;2.50;;
13222;SDS011;6676;45.192;5.722;2022-12-24T13:53:30;3.40;;;2.83;;
13222;SDS011;6676;45.192;5.722;2022-12-24T13:56:24;3.40;;;3.10;;
13222;SDS011;6676;45.192;5.722;2022-12-24T13:59:22;3.62;;;3.30;;
13222;SDS011;6676;45.192;5.722;2022-12-24T14:02:18;4.00;;;2.90;;
13222;SDS011;6676;45.192;5.722;2022-12-24T14:05:15;4.90;;;3.25;;
13222;SDS011;6676;45.192;5.722;2022-12-24T14:08:10;3.98;;;2.80;;
13222;SDS011;6676;45.192;5.722;2022-12-24T14:10:56;4.28;;;2.98;;
13222;SDS011;6676;45.192;5.722;2022-12-24T14:17:21;3.60;;;2.60;;
13222;SDS011;6676;45.192;5.722;2022-12-24T14:20:13;3.02;;;2.72;;
13222;SDS011;6676;45.192;5.722;2022-12-24T14:25:45;4.03;;;2.37;;
13222;SDS011;6676;45.192;5.722;2022-12-24T14:31:16;3.42;;;2.50;;
13222;SDS011;6676;45.192;5.722;2022-12-24T14:36:48;2.72;;;2.10;;
13222;SDS011;6676;45.192;5.722;2022-12-24T14:39:44;2.83;;;2.40;;
13222;SDS011;6676;45.192;5.722;2022-12-24T14:42:40;3.60;;;2.75;;
13222;SDS011;6676;45.192;5.722;2022-12-24T14:48:14;5.55;;;3.42;;
13222;SDS011;6676;45.192;5.722;2022-12-24T14:50:57;4.37;;;3.10;;
13222;SDS011;6676;45.192;5.722;2022-12-24T14:54:01;3.00;;;2.50;;
13222;SDS011;6676;45.192;5.722;2022-12-24T14:57:10;3.10;;;2.80;;
13222;SDS011;6676;45.192;5.722;2022-12-24T15:03:10;3.77;;;2.77;;
13222;SDS011;6676;45.192;5.722;2022-12-24T15:06:04;2.90;;;2.47;;
13222;SDS011;6676;45.192;5.722;2022-12-24T15:08:59;3.65;;;3.00;;
13222;SDS011;6676;45.192;5.722;2022-12-24T15:11:51;2.95;;;2.70;;
13222;SDS011;6676;45.192;5.722;2022-12-24T15:17:24;4.28;;;3.00;;
13222;SDS011;6676;45.192;5.722;2022-12-24T15:20:17;3.98;;;3.50;;
13222;SDS011;6676;45.192;5.722;2022-12-24T15:23:16;3.80;;;3.00;;
13222;SDS011;6676;45.192;5.722;2022-12-24T15:28:53;4.97;;;2.58;;
13222;SDS011;6676;45.192;5.722;2022-12-24T15:31:51;3.45;;;2.65;;
13222;SDS011;6676;45.192;5.722;2022-12-24T15:34:44;3.62;;;2.50;;
13222;SDS011;6676;45.192;5.722;2022-12-24T15:37:36;2.67;;;2.37;;
13222;SDS011;6676;45.192;5.722;2022-12-24T15:40:30;3.62;;;2.37;;
13222;SDS011;6676;45.192;5.722;2022-12-24T15:43:22;3.30;;;2.50;;
13222;SDS011;6676;45.192;5.722;2022-12-24T15:46:19;3.10;;;2.77;;
13222;SDS011;6676;45.192;5.722;2022-12-24T15:49:12;3.40;;;2.90;;
13222;SDS011;6676;45.192;5.722;2022-12-24T15:51:53;3.47;;;2.70;;
13222;SDS011;6676;45.192;5.722;2022-12-24T15:54:52;3.47;;;2.70;;
13222;SDS011;6676;45.192;5.722;2022-12-24T15:57:45;3.42;;;2.90;;
13222;SDS011;6676;45.192;5.722;2022-12-24T16:00:37;5.08;;;3.70;;
13222;SDS011;6676;45.192;5.722;2022-12-24T16:03:30;4.08;;;3.27;;
13222;SDS011;6676;45.192;5.722;2022-12-24T16:06:22;4.35;;;3.40;;
13222;SDS011;6676;45.192;5.722;2022-12-24T16:09:29;5.78;;;4.10;;
13222;SDS011;6676;45.192;5.722;2022-12-24T16:12:31;8.05;;;4.42;;
13222;SDS011;6676;45.192;5.722;2022-12-24T16:15:32;5.78;;;4.05;;
13222;SDS011;6676;45.192;5.722;2022-12-24T16:18:24;4.95;;;4.45;;
13222;SDS011;6676;45.192;5.722;2022-12-24T16:21:19;6.10;;;4.37;;
13222;SDS011;6676;45.192;5.722;2022-12-24T16:26:52;4.62;;;4.15;;
13222;SDS011;6676;45.192;5.722;2022-12-24T16:29:43;6.78;;;5.00;;
13222;SDS011;6676;45.192;5.722;2022-12-24T16:32:34;5.83;;;5.10;;
13222;SDS011;6676;45.192;5.722;2022-12-24T16:35:27;6.03;;;5.12;;
13222;SDS011;6676;45.192;5.722;2022-12-24T16:41:04;6.53;;;5.58;;
13222;SDS011;6676;45.192;5.722;2022-12-24T16:59:40;7.15;;;5.00;;
13222;SDS011;6676;45.192;5.722;2022-12-24T17:02:31;6.28;;;5.17;;
13222;SDS011;6676;45.192;5.722;2022-12-24T17:05:23;7.37;;;5.62;;
13222;SDS011;6676;45.192;5.722;2022-12-24T17:08:14;7.83;;;6.28;;
13222;SDS011;6676;45.192;5.722;2022-12-24T17:11:06;9.03;;;7.03;;
13222;SDS011;6676;45.192;5.722;2022-12-24T17:13:58;9.68;;;5.83;;
13222;SDS011;6676;45.192;5.722;2022-12-24T17:16:51;6.40;;;5.12;;
13222;SDS011;6676;45.192;5.722;2022-12-24T17:19:43;8.48;;;5.42;;
13222;SDS011;6676;45.192;5.722;2022-12-24T17:22:35;7.72;;;5.70;;
13222;SDS011;6676;45.192;5.722;2022-12-24T17:25:27;7.83;;;5.92;;
13222;SDS011;6676;45.192;5.722;2022-12-24T17:28:19;9.58;;;6.72;;
13222;SDS011;6676;45.192;5.722;2022-12-24T17:31:11;8.08;;;6.87;;
13222;SDS011;6676;45.192;5.722;2022-12-24T17:36:43;7.42;;;6.25;;
13222;SDS011;6676;45.192;5.722;2022-12-24T17:39:35;10.48;;;7.45;;
13222;SDS011;6676;45.192;5.722;2022-12-24T17:42:26;7.53;;;6.72;;
13222;SDS011;6676;45.192;5.722;2022-12-24T17:45:17;8.88;;;7.40;;
13222;SDS011;6676;45.192;5.722;2022-12-24T17:50:48;7.72;;;6.67;;
13222;SDS011;6676;45.192;5.722;2022-12-24T17:56:18;8.58;;;7.37;;
13222;SDS011;6676;45.192;5.722;2022-12-24T17:59:09;9.45;;;7.95;;
13222;SDS011;6676;45.192;5.722;2022-12-24T18:01:48;9.33;;;8.18;;
13222;SDS011;6676;45.192;5.722;2022-12-24T18:04:39;9.63;;;8.38;;
13222;SDS011;6676;45.192;5.722;2022-12-24T18:07:31;12.18;;;9.18;;
13222;SDS011;6676;45.192;5.722;2022-12-24T18:10:22;10.00;;;9.00;;
13222;SDS011;6676;45.192;5.722;2022-12-24T18:13:14;13.30;;;10.10;;
13222;SDS011;6676;45.192;5.722;2022-12-24T18:15:54;12.18;;;10.38;;
13222;SDS011;6676;45.192;5.722;2022-12-24T18:21:26;18.98;;;12.13;;
13222;SDS011;6676;45.192;5.722;2022-12-24T18:27:02;14.73;;;11.00;;
13222;SDS011;6676;45.192;5.722;2022-12-24T18:29:53;13.45;;;10.43;;
13222;SDS011;6676;45.192;5.722;2022-12-24T18:32:44;13.65;;;10.98;;
13222;SDS011;6676;45.192;5.722;2022-12-24T18:35:25;11.83;;;10.32;;
13222;SDS011;6676;45.192;5.722;2022-12-24T18:38:16;10.98;;;9.78;;
13222;SDS011;6676;45.192;5.722;2022-12-24T18:41:08;11.03;;;9.25;;
13222;SDS011;6676;45.192;5.722;2022-12-24T18:44:01;10.53;;;9.23;;
13222;SDS011;6676;45.192;5.722;2022-12-24T18:46:52;13.05;;;9.65;;
13222;SDS011;6676;45.192;5.722;2022-12-24T18:49:43;12.30;;;9.80;;
13222;SDS011;6676;45.192;5.722;2022-12-24T18:52:24;14.28;;;10.55;;
13222;SDS011;6676;45.192;5.722;2022-12-24T18:55:16;13.13;;;10.80;;
13222;SDS011;6676;45.192;5.722;2022-12-24T19:00:47;15.90;;;12.13;;
13222;SDS011;6676;45.192;5.722;2022-12-24T19:06:20;13.15;;;11.60;;
13222;SDS011;6676;45.192;5.722;2022-12-24T19:09:11;15.40;;;11.55;;
13222;SDS011;6676;45.192;5.722;2022-12-24T19:12:03;16.12;;;12.43;;
13222;SDS011;6676;45.192;5.722;2022-12-24T19:17:34;15.03;;;11.53;;
13222;SDS011;6676;45.192;5.722;2022-12-24T19:20:25;15.58;;;11.48;;
13222;SDS011;6676;45.192;5.722;2022-12-24T19:23:17;12.63;;;10.05;;
13222;SDS011;6676;45.192;5.722;2022-12-24T19:26:08;14.58;;;12.98;;
13222;SDS011;6676;45.192;5.722;2022-12-24T19:29:00;13.40;;;11.38;;
13222;SDS011;6676;45.192;5.722;2022-12-24T19:31:51;13.75;;;11.18;;
13222;SDS011;6676;45.192;5.722;2022-12-24T19:34:42;13.75;;;10.82;;
13222;SDS011;6676;45.192;5.722;2022-12-24T19:37:34;14.07;;;11.53;;
13222;SDS011;6676;45.192;5.722;2022-12-24T19:40:26;15.23;;;11.88;;
13222;SDS011;6676;45.192;5.722;2022-12-24T19:43:17;14.93;;;12.07;;
13222;SDS011;6676;45.192;5.722;2022-12-24T19:46:09;15.40;;;12.35;;
13222;SDS011;6676;45.192;5.722;2022-12-24T19:49:03;14.38;;;12.35;;
13222;SDS011;6676;45.192;5.722;2022-12-24T19:51:56;17.23;;;12.23;;
13222;SDS011;6676;45.192;5.722;2022-12-24T19:54:47;17.02;;;13.00;;
13222;SDS011;6676;45.192;5.722;2022-12-24T19:57:38;19.00;;;14.70;;
13222;SDS011;6676;45.192;5.722;2022-12-24T20:00:30;16.12;;;12.70;;
13222;SDS011;6676;45.192;5.722;2022-12-24T20:03:22;14.95;;;11.45;;
13222;SDS011;6676;45.192;5.722;2022-12-24T20:06:13;14.55;;;11.22;;
13222;SDS011;6676;45.192;5.722;2022-12-24T20:09:07;13.22;;;11.83;;
13222;SDS011;6676;45.192;5.722;2022-12-24T20:12:00;15.63;;;11.95;;
13222;SDS011;6676;45.192;5.722;2022-12-24T20:14:54;15.63;;;12.40;;
13222;SDS011;6676;45.192;5.722;2022-12-24T20:17:46;21.00;;;13.68;;
13222;SDS011;6676;45.192;5.722;2022-12-24T20:23:22;17.10;;;13.60;;
13222;SDS011;6676;45.192;5.722;2022-12-24T20:26:16;18.95;;;14.87;;
13222;SDS011;6676;45.192;5.722;2022-12-24T20:29:09;16.05;;;12.40;;
13222;SDS011;6676;45.192;5.722;2022-12-24T20:32:00;16.48;;;11.55;;
13222;SDS011;6676;45.192;5.722;2022-12-24T20:34:53;14.23;;;11.20;;
13222;SDS011;6676;45.192;5.722;2022-12-24T20:37:45;11.50;;;9.83;;
13222;SDS011;6676;45.192;5.722;2022-12-24T20:40:39;11.48;;;9.68;;
13222;SDS011;6676;45.192;5.722;2022-12-24T20:43:31;13.60;;;10.70;;
13222;SDS011;6676;45.192;5.722;2022-12-24T20:46:25;13.08;;;10.80;;
13222;SDS011;6676;45.192;5.722;2022-12-24T20:49:18;15.85;;;12.25;;
13222;SDS011;6676;45.192;5.722;2022-12-24T20:52:10;15.70;;;12.60;;
13222;SDS011;6676;45.192;5.722;2022-12-24T20:55:01;16.70;;;12.58;;